Time;durP1;ratioP1;P1;durP2;ratioP2;P2;SDS_P1;SDS_P2;PMS_P1;PMS_P2;Temp;Humidity;BMP_temperature;BMP_pressure;BME280_temperature;BME280_humidity;BME280_pressure;Samples;Min_cycle;Max_cycle;Signal;HPM_P1;HPM_P2
2021/12/18 00:01:46;;;;;;;56.58;27.67;;;2.60;99.90;;;;;;5092369;28;20387;-59
2021/12/18 00:04:15;;;;;;;58.35;27.67;;;2.60;99.90;;;;;;5092140;28;20020;-59
2021/12/18 00:06:41;;;;;;;56.17;26.75;;;2.50;99.90;;;;;;5091657;28;20085;-59
2021/12/18 00:09:08;;;;;;;68.85;28.92;;;2.40;99.90;;;;;;5091933;28;20056;-59
2021/12/18 00:11:34;;;;;;;62.88;29.77;;;2.50;99.90;;;;;;5090436;28;20020;-59
2021/12/18 00:14:00;;;;;;;95.22;38.53;;;2.50;99.90;;;;;;5090426;28;20032;-59
2021/12/18 00:16:25;;;;;;;85.13;35.42;;;2.50;99.90;;;;;;5089038;28;20047;-59
2021/12/18 00:18:53;;;;;;;70.50;31.80;;;2.40;99.90;;;;;;5089701;28;20103;-59
2021/12/18 00:21:20;;;;;;;69.38;31.75;;;2.50;99.90;;;;;;5088792;28;20024;-59
2021/12/18 00:23:46;;;;;;;64.72;27.73;;;2.40;99.90;;;;;;5089975;28;20054;-59
2021/12/18 00:26:12;;;;;;;66.45;28.73;;;2.30;99.90;;;;;;5089354;28;20028;-59
2021/12/18 00:28:37;;;;;;;66.95;28.63;;;2.30;99.90;;;;;;5089771;28;20032;-59
2021/12/18 00:31:03;;;;;;;74.95;30.83;;;2.30;99.90;;;;;;5089439;28;20085;-59
2021/12/18 00:33:29;;;;;;;72.55;29.55;;;2.30;99.90;;;;;;5089856;28;20028;-59
2021/12/18 00:35:55;;;;;;;73.50;29.67;;;2.30;99.90;;;;;;5089775;28;20054;-59
2021/12/18 00:38:28;;;;;;;73.15;30.20;;;2.30;99.90;;;;;;5089620;28;20031;-59
2021/12/18 00:41:13;;;;;;;93.82;33.85;;;2.40;99.90;;;;;;5089228;28;20038;-59
2021/12/18 00:46:25;;;;;;;53.10;24.65;;;2.40;99.90;;;;;;5089153;28;20034;-59
2021/12/18 00:48:51;;;;;;;53.67;25.10;;;2.40;99.90;;;;;;5071639;28;20542;-58
2021/12/18 00:51:17;;;;;;;54.92;24.17;;;2.30;99.90;;;;;;5089878;28;20106;-59
2021/12/18 00:53:42;;;;;;;52.92;24.42;;;2.30;99.90;;;;;;5089714;28;20426;-60
2021/12/18 00:56:08;;;;;;;48.60;24.42;;;2.40;99.90;;;;;;5089406;28;20055;-60
2021/12/18 00:58:34;;;;;;;59.28;26.48;;;2.40;99.90;;;;;;5089806;28;20039;-60
2021/12/18 01:01:00;;;;;;;44.70;22.50;;;2.30;99.90;;;;;;5090480;28;20256;-60
2021/12/18 01:03:26;;;;;;;44.13;24.73;;;2.30;99.90;;;;;;5089825;28;20111;-60
2021/12/18 01:05:51;;;;;;;51.75;24.58;;;2.30;99.90;;;;;;5089482;28;20111;-60
2021/12/18 01:08:18;;;;;;;49.25;23.60;;;2.30;99.90;;;;;;5090024;28;20031;-60
2021/12/18 01:13:24;;;;;;;52.70;23.58;;;2.30;99.90;;;;;;5090188;28;20077;-60
2021/12/18 01:15:54;;;;;;;83.75;32.00;;;2.30;99.90;;;;;;5088852;28;20169;-60
2021/12/18 01:23:48;;;;;;;50.72;24.70;;;2.40;99.90;;;;;;5089571;28;20112;-60
2021/12/18 01:26:14;;;;;;;46.22;25.13;;;2.40;99.90;;;;;;5089185;28;20111;-60
2021/12/18 01:28:40;;;;;;;55.13;24.55;;;2.40;99.90;;;;;;5089847;28;20031;-60
2021/12/18 01:31:06;;;;;;;55.88;24.90;;;2.40;99.90;;;;;;5089211;28;20091;-60
2021/12/18 01:33:32;;;;;;;67.85;29.00;;;2.50;99.90;;;;;;5089245;28;20028;-60
2021/12/18 01:36:00;;;;;;;72.68;29.55;;;2.50;99.90;;;;;;5089649;28;20024;-60
2021/12/18 01:38:30;;;;;;;47.47;22.52;;;2.50;99.90;;;;;;5089845;28;20360;-60
2021/12/18 01:40:58;;;;;;;56.50;24.15;;;2.50;99.90;;;;;;5092348;28;20024;-60
2021/12/18 01:58:20;;;;;;;65.88;30.17;;;2.50;99.90;;;;;;5088391;28;20096;-60
2021/12/18 02:00:47;;;;;;;50.60;25.10;;;2.40;99.90;;;;;;5073080;28;20032;-60
2021/12/18 02:03:13;;;;;;;43.25;23.00;;;2.30;99.90;;;;;;5080535;28;20094;-61
2021/12/18 02:05:38;;;;;;;44.90;24.17;;;2.40;99.90;;;;;;5093084;28;20690;-60
2021/12/18 02:08:05;;;;;;;47.80;23.50;;;2.40;99.90;;;;;;5092879;28;20461;-60
2021/12/18 02:10:42;;;;;;;46.78;24.38;;;2.30;99.90;;;;;;5093129;28;20025;-60
2021/12/18 02:21:11;;;;;;;44.40;21.75;;;2.40;99.90;;;;;;5093314;28;20058;-60
2021/12/18 02:23:38;;;;;;;45.13;22.40;;;2.40;99.90;;;;;;5093087;28;20091;-60
2021/12/18 02:26:04;;;;;;;40.20;20.35;;;2.40;99.90;;;;;;5092755;28;20475;-60
2021/12/18 02:28:30;;;;;;;47.60;23.02;;;2.40;99.90;;;;;;5092732;28;20068;-60
2021/12/18 02:30:57;;;;;;;35.75;19.38;;;2.30;99.90;;;;;;5092534;28;20020;-60
2021/12/18 02:33:25;;;;;;;42.28;21.92;;;2.40;99.90;;;;;;5092566;28;21190;-60
2021/12/18 02:35:53;;;;;;;35.10;20.67;;;2.40;99.90;;;;;;5092636;28;20103;-59
2021/12/18 02:41:39;;;;;;;43.72;21.98;;;2.50;99.90;;;;;;5050083;28;20643;-60
2021/12/18 02:44:09;;;;;;;43.55;22.52;;;2.50;99.90;;;;;;5091869;28;20050;-60
2021/12/18 02:46:36;;;;;;;51.42;23.35;;;2.60;99.90;;;;;;5093028;28;20024;-60
2021/12/18 02:49:14;;;;;;;46.17;23.45;;;2.50;99.90;;;;;;5093152;28;20081;-60
2021/12/18 02:51:41;;;;;;;42.88;21.00;;;2.60;99.90;;;;;;5091184;28;20035;-60
2021/12/18 02:54:07;;;;;;;44.40;22.30;;;2.50;99.90;;;;;;5092273;28;20078;-60
2021/12/18 02:56:33;;;;;;;46.15;24.38;;;2.40;99.90;;;;;;5091771;28;20511;-60
2021/12/18 02:59:07;;;;;;;49.75;22.55;;;2.40;99.90;;;;;;5082448;28;20032;-60
2021/12/18 03:01:34;;;;;;;47.80;23.98;;;2.40;99.90;;;;;;5092406;28;20566;-60
2021/12/18 03:04:03;;;;;;;47.72;23.75;;;2.30;99.90;;;;;;5092128;28;20024;-61
2021/12/18 03:25:18;;;;;;;54.10;26.15;;;2.40;99.90;;;;;;5091775;28;20047;-60
2021/12/18 03:27:45;;;;;;;49.45;25.52;;;2.30;99.90;;;;;;5091661;28;20032;-60
2021/12/18 03:30:23;;;;;;;47.45;22.90;;;2.30;99.90;;;;;;5091551;28;20111;-60
2021/12/18 03:32:48;;;;;;;41.25;22.02;;;2.30;99.90;;;;;;5091820;28;20024;-60
2021/12/18 03:35:15;;;;;;;41.63;22.70;;;2.30;99.90;;;;;;5091513;28;20110;-60
2021/12/18 03:37:41;;;;;;;51.17;25.08;;;2.30;99.90;;;;;;5091403;28;20070;-60
2021/12/18 03:40:10;;;;;;;46.97;23.10;;;2.30;99.90;;;;;;5091137;28;20045;-60
2021/12/18 03:42:36;;;;;;;43.55;22.85;;;2.30;99.90;;;;;;5073348;28;20115;-60
2021/12/18 03:45:03;;;;;;;40.92;22.33;;;2.40;99.90;;;;;;5091322;28;20024;-60
2021/12/18 03:47:29;;;;;;;45.92;22.75;;;2.30;99.90;;;;;;5091385;28;20103;-60
2021/12/18 03:49:55;;;;;;;40.95;22.17;;;2.30;99.90;;;;;;5091571;28;20111;-60
2021/12/18 03:52:21;;;;;;;41.80;22.40;;;2.30;99.90;;;;;;5091073;28;20265;-60
2021/12/18 03:54:46;;;;;;;41.38;21.25;;;2.30;99.90;;;;;;5091370;28;20399;-60
2021/12/18 03:57:12;;;;;;;37.58;21.48;;;2.30;99.90;;;;;;5091043;28;20024;-60
2021/12/18 03:59:38;;;;;;;43.33;21.60;;;2.30;99.90;;;;;;5091448;28;20028;-60
2021/12/18 04:02:03;;;;;;;39.05;21.65;;;2.40;99.90;;;;;;5090869;28;20081;-60
2021/12/18 04:04:29;;;;;;;39.08;20.90;;;2.40;99.90;;;;;;5090755;28;20114;-61
2021/12/18 04:06:55;;;;;;;40.28;20.98;;;2.50;99.90;;;;;;5090826;28;20093;-59
2021/12/18 04:09:20;;;;;;;35.67;20.00;;;2.60;99.90;;;;;;5090358;28;20089;-60
2021/12/18 04:11:47;;;;;;;38.67;20.15;;;2.60;99.90;;;;;;5091331;28;20527;-60
2021/12/18 04:14:14;;;;;;;35.10;19.73;;;2.50;99.90;;;;;;5090788;28;20016;-60
2021/12/18 04:16:40;;;;;;;35.67;20.63;;;2.50;99.90;;;;;;5090328;28;20150;-60
2021/12/18 04:19:06;;;;;;;34.85;18.75;;;2.60;99.90;;;;;;5089966;28;20043;-60
2021/12/18 04:21:33;;;;;;;35.03;20.05;;;2.60;99.90;;;;;;5090223;28;20111;-60
2021/12/18 04:23:59;;;;;;;42.60;21.55;;;2.60;99.90;;;;;;5090752;28;20016;-60
2021/12/18 04:26:25;;;;;;;39.45;19.50;;;2.60;99.90;;;;;;5060114;28;20044;-60
2021/12/18 04:28:51;;;;;;;43.10;22.58;;;2.50;99.90;;;;;;5086602;28;20055;-60
2021/12/18 04:31:17;;;;;;;46.03;22.63;;;2.50;99.90;;;;;;5070427;28;20033;-59
2021/12/18 04:33:43;;;;;;;45.70;22.15;;;2.40;99.90;;;;;;5076796;28;20024;-60
2021/12/18 04:36:09;;;;;;;36.65;21.48;;;2.40;99.90;;;;;;5089990;28;20527;-59
2021/12/18 04:38:35;;;;;;;42.97;22.38;;;2.50;99.90;;;;;;5090336;28;20028;-60
2021/12/18 04:41:03;;;;;;;42.60;20.13;;;2.50;99.90;;;;;;5090333;28;20030;-60
2021/12/18 04:43:28;;;;;;;46.30;23.92;;;2.50;99.90;;;;;;5090250;28;20456;-60
2021/12/18 04:45:54;;;;;;;45.22;22.67;;;2.30;99.90;;;;;;5090153;28;20024;-60
2021/12/18 04:48:20;;;;;;;48.53;25.38;;;2.20;99.90;;;;;;5090235;28;20046;-60
2021/12/18 04:50:46;;;;;;;44.30;22.23;;;2.20;99.90;;;;;;5090195;28;20024;-60
2021/12/18 04:53:11;;;;;;;53.08;25.38;;;2.30;99.90;;;;;;5090273;28;20051;-60
2021/12/18 04:55:37;;;;;;;45.75;22.60;;;2.20;99.90;;;;;;5090411;28;20012;-61
2021/12/18 04:58:03;;;;;;;46.00;24.55;;;2.30;99.90;;;;;;5090736;28;20065;-60
2021/12/18 05:00:38;;;;;;;44.08;22.88;;;2.30;99.90;;;;;;5072413;28;20055;-60
2021/12/18 05:03:10;;;;;;;48.85;22.00;;;2.30;99.90;;;;;;5089985;28;20032;-60
2021/12/18 05:06:29;;;;;;;44.35;22.02;;;2.20;99.90;;;;;;5090059;28;20093;-60
2021/12/18 05:08:55;;;;;;;35.67;20.75;;;2.20;99.90;;;;;;5090429;28;20085;-59
2021/12/18 05:11:21;;;;;;;37.85;20.85;;;2.20;99.90;;;;;;5090006;28;20462;-60
2021/12/18 05:13:46;;;;;;;41.50;21.05;;;2.20;99.90;;;;;;5090126;28;20047;-60
2021/12/18 05:16:12;;;;;;;42.13;21.90;;;2.30;99.90;;;;;;5093072;28;20040;-60
2021/12/18 05:18:37;;;;;;;35.80;21.98;;;2.30;99.90;;;;;;5094350;28;20032;-60
2021/12/18 05:21:03;;;;;;;38.78;21.15;;;2.30;99.90;;;;;;5094177;28;20082;-60
2021/12/18 05:23:29;;;;;;;39.70;21.48;;;2.40;99.90;;;;;;5094107;28;20472;-60
2021/12/18 05:25:54;;;;;;;83.70;45.60;;;2.40;99.90;;;;;;5094606;28;20028;-60
2021/12/18 05:28:20;;;;;;;34.25;20.02;;;2.40;99.90;;;;;;5094900;28;20016;-60
2021/12/18 05:30:45;;;;;;;31.15;17.08;;;2.50;99.90;;;;;;5094412;28;20070;-60
2021/12/18 05:33:12;;;;;;;34.90;18.52;;;2.50;99.90;;;;;;5094697;28;20039;-60
2021/12/18 05:35:39;;;;;;;36.28;17.92;;;2.50;99.90;;;;;;5094642;28;20547;-60
2021/12/18 05:38:04;;;;;;;30.83;16.75;;;2.50;99.90;;;;;;5094390;28;20539;-60
2021/12/18 05:40:31;;;;;;;29.27;17.08;;;2.50;99.90;;;;;;5093969;28;20031;-60
2021/12/18 05:42:57;;;;;;;28.50;16.95;;;2.50;99.90;;;;;;5094579;28;20414;-60
2021/12/18 05:45:23;;;;;;;29.83;17.13;;;2.50;99.90;;;;;;5093955;28;20024;-60
2021/12/18 05:48:02;;;;;;;28.70;16.30;;;2.50;99.90;;;;;;5094147;28;20028;-60
2021/12/18 05:50:29;;;;;;;30.98;17.48;;;2.50;99.90;;;;;;5094632;28;20052;-60
2021/12/18 05:52:58;;;;;;;27.92;15.57;;;2.50;99.90;;;;;;5094519;28;20100;-60
2021/12/18 05:55:25;;;;;;;29.60;16.25;;;2.60;99.90;;;;;;5094471;28;20044;-60
2021/12/18 05:57:52;;;;;;;24.70;14.80;;;2.50;99.90;;;;;;5094372;28;20500;-60
2021/12/18 06:00:20;;;;;;;25.55;16.45;;;2.50;99.90;;;;;;5094178;28;20028;-60
2021/12/18 06:02:46;;;;;;;29.17;14.68;;;2.50;99.90;;;;;;5094274;28;20027;-60
2021/12/18 06:05:12;;;;;;;27.67;15.75;;;2.50;99.90;;;;;;5094207;28;20032;-60
2021/12/18 06:11:06;;;;;;;28.83;16.38;;;2.50;99.90;;;;;;5094477;28;20105;-60
2021/12/18 06:13:31;;;;;;;28.48;15.57;;;2.40;99.90;;;;;;5094223;28;20038;-60
2021/12/18 06:15:57;;;;;;;31.95;17.20;;;2.50;99.90;;;;;;5093751;28;20589;-60
2021/12/18 06:18:23;;;;;;;25.92;15.65;;;2.40;99.90;;;;;;5093907;28;20031;-60
2021/12/18 06:20:48;;;;;;;52.50;25.13;;;2.50;99.90;;;;;;5093858;28;20021;-60
2021/12/18 06:23:14;;;;;;;31.15;17.05;;;2.40;99.90;;;;;;5093957;28;20028;-60
2021/12/18 06:25:39;;;;;;;70.63;24.05;;;2.50;99.90;;;;;;5093798;28;20028;-61
2021/12/18 06:28:05;;;;;;;23.85;14.75;;;2.50;99.90;;;;;;5093790;28;20016;-60
2021/12/18 06:30:31;;;;;;;40.55;18.42;;;2.50;99.90;;;;;;5093715;28;20383;-61
2021/12/18 06:32:56;;;;;;;68.53;34.47;;;2.40;99.90;;;;;;5093865;28;20460;-60
2021/12/18 06:35:22;;;;;;;37.53;21.70;;;2.40;99.90;;;;;;5093667;28;20028;-60
2021/12/18 06:37:48;;;;;;;56.60;27.00;;;2.40;99.90;;;;;;5093819;28;20028;-61
2021/12/18 06:40:13;;;;;;;25.77;16.40;;;2.30;99.90;;;;;;5075174;28;20066;-60
2021/12/18 06:42:39;;;;;;;22.48;14.45;;;2.40;99.90;;;;;;5093786;28;20043;-60
2021/12/18 06:45:07;;;;;;;48.72;27.27;;;2.30;99.90;;;;;;5075366;28;20020;-61
2021/12/18 06:47:32;;;;;;;31.73;20.05;;;2.20;99.90;;;;;;5093432;28;20077;-60
2021/12/18 06:49:58;;;;;;;25.58;14.75;;;2.20;99.90;;;;;;5093317;28;20051;-60
2021/12/18 06:52:23;;;;;;;19.80;14.00;;;2.30;99.90;;;;;;5092794;28;20032;-60
2021/12/18 06:54:49;;;;;;;25.60;16.30;;;2.30;99.90;;;;;;5093451;28;20028;-60
2021/12/18 06:57:15;;;;;;;27.17;16.85;;;2.30;99.90;;;;;;5093142;28;20016;-60
2021/12/18 06:59:40;;;;;;;25.58;16.95;;;2.30;99.90;;;;;;5093322;28;20482;-60
2021/12/18 07:02:06;;;;;;;29.25;16.90;;;2.30;99.90;;;;;;5092995;28;20031;-60
2021/12/18 07:04:32;;;;;;;28.92;17.48;;;2.40;99.90;;;;;;5093203;28;20085;-60
2021/12/18 07:06:57;;;;;;;33.85;17.60;;;2.40;99.90;;;;;;5093148;28;20016;-60
2021/12/18 07:09:23;;;;;;;34.20;19.45;;;2.40;99.90;;;;;;5092901;28;20031;-60
2021/12/18 07:11:48;;;;;;;29.15;17.67;;;2.40;99.90;;;;;;5074901;28;20052;-60
2021/12/18 07:14:14;;;;;;;29.08;19.77;;;2.40;99.90;;;;;;5092966;28;20058;-60
2021/12/18 07:16:40;;;;;;;31.65;18.52;;;2.30;99.90;;;;;;5092849;28;20414;-60
2021/12/18 07:19:06;;;;;;;36.22;20.08;;;2.30;99.90;;;;;;5092576;28;20036;-60
2021/12/18 07:21:31;;;;;;;42.65;23.52;;;2.30;99.90;;;;;;5092808;28;20162;-59
2021/12/18 07:23:57;;;;;;;30.02;17.83;;;2.30;99.90;;;;;;5092823;28;20008;-61
2021/12/18 07:26:22;;;;;;;29.70;19.55;;;2.40;99.90;;;;;;5092839;28;20024;-60
2021/12/18 07:28:48;;;;;;;23.05;15.23;;;2.40;99.90;;;;;;5092594;28;20451;-60
2021/12/18 07:31:14;;;;;;;26.98;17.42;;;2.40;99.90;;;;;;5092757;28;20107;-60
2021/12/18 07:33:42;;;;;;;28.20;17.15;;;2.30;99.90;;;;;;5092675;28;20074;-60
2021/12/18 07:36:08;;;;;;;26.55;16.52;;;2.30;99.90;;;;;;5092428;28;20467;-60
2021/12/18 07:38:34;;;;;;;31.33;19.75;;;2.30;99.90;;;;;;5091875;28;20096;-60
2021/12/18 07:41:00;;;;;;;33.53;19.65;;;2.30;99.90;;;;;;5092621;28;20032;-60
2021/12/18 07:43:26;;;;;;;29.40;19.23;;;2.30;99.90;;;;;;5092285;28;20031;-60
2021/12/18 07:45:52;;;;;;;26.48;16.65;;;2.30;99.90;;;;;;5092331;28;20097;-60
2021/12/18 07:48:18;;;;;;;30.48;17.63;;;2.30;99.90;;;;;;5092343;28;20047;-60
2021/12/18 07:50:44;;;;;;;26.13;16.73;;;2.40;99.90;;;;;;5092528;28;20028;-61
2021/12/18 07:53:11;;;;;;;28.15;16.50;;;2.40;99.90;;;;;;5091986;28;20129;-60
2021/12/18 07:55:37;;;;;;;23.48;13.95;;;2.30;99.90;;;;;;5092262;28;20032;-60
2021/12/18 07:58:03;;;;;;;25.20;14.45;;;2.50;99.90;;;;;;5091968;28;20028;-60
2021/12/18 08:00:29;;;;;;;24.33;14.35;;;2.40;99.90;;;;;;5092182;28;20020;-60
2021/12/18 08:02:56;;;;;;;29.85;15.57;;;2.40;99.90;;;;;;5092172;28;20546;-60
2021/12/18 08:05:21;;;;;;;31.52;17.05;;;2.50;99.90;;;;;;5091809;28;20027;-60
2021/12/18 08:07:47;;;;;;;29.58;16.75;;;2.50;99.90;;;;;;5092011;28;20104;-60
2021/12/18 08:10:13;;;;;;;29.52;15.43;;;2.40;99.90;;;;;;5073671;28;20055;-60
2021/12/18 08:12:39;;;;;;;26.95;15.82;;;2.20;99.90;;;;;;5091811;28;20039;-60
2021/12/18 08:15:06;;;;;;;32.53;17.25;;;2.20;99.90;;;;;;5091670;28;20055;-61
2021/12/18 08:17:32;;;;;;;26.38;15.05;;;2.20;99.90;;;;;;5091624;28;20137;-60
2021/12/18 08:19:57;;;;;;;77.63;31.70;;;2.20;99.90;;;;;;5091745;28;20475;-60
2021/12/18 08:22:23;;;;;;;76.20;27.15;;;2.30;99.90;;;;;;5091476;28;20032;-60
2021/12/18 08:24:49;;;;;;;150.55;60.03;;;2.20;99.90;;;;;;5091638;28;20520;-60
2021/12/18 08:27:14;;;;;;;82.75;33.33;;;2.20;99.90;;;;;;5091419;28;20111;-60
2021/12/18 08:29:40;;;;;;;28.75;15.70;;;2.20;99.90;;;;;;5091575;28;20028;-60
2021/12/18 08:32:07;;;;;;;40.40;23.42;;;2.10;99.90;;;;;;5091580;28;20102;-60
2021/12/18 08:34:32;;;;;;;30.88;17.60;;;2.20;99.90;;;;;;5091398;28;20028;-60
2021/12/18 08:36:58;;;;;;;33.53;18.33;;;2.20;99.90;;;;;;5091398;28;20119;-60
2021/12/18 08:39:23;;;;;;;25.55;15.63;;;2.20;99.90;;;;;;5091237;28;20044;-60
2021/12/18 08:41:49;;;;;;;33.67;15.73;;;2.10;99.90;;;;;;5091448;28;20012;-60
2021/12/18 08:44:15;;;;;;;28.52;16.27;;;2.10;99.90;;;;;;5091428;28;20096;-60
2021/12/18 08:46:41;;;;;;;27.63;16.73;;;2.30;99.90;;;;;;5091307;28;20379;-60
2021/12/18 08:49:07;;;;;;;27.98;16.10;;;2.30;99.90;;;;;;5090656;28;20024;-60
2021/12/18 08:51:35;;;;;;;35.10;16.92;;;2.40;99.90;;;;;;5090994;28;20507;-60
2021/12/18 08:54:00;;;;;;;53.20;27.10;;;2.40;99.90;;;;;;5091175;28;20040;-61
2021/12/18 08:56:26;;;;;;;38.60;19.13;;;2.40;99.90;;;;;;5091217;28;20024;-60
2021/12/18 08:58:53;;;;;;;25.33;14.82;;;2.30;99.90;;;;;;5072908;28;20036;-61
2021/12/18 09:01:21;;;;;;;28.30;18.00;;;2.20;99.90;;;;;;5090761;28;20107;-61
2021/12/18 09:03:47;;;;;;;30.88;18.75;;;2.20;99.90;;;;;;5089661;28;20119;-61
2021/12/18 09:06:13;;;;;;;27.85;16.17;;;2.40;99.90;;;;;;5090998;28;20012;-66
2021/12/18 09:08:39;;;;;;;27.52;17.10;;;2.40;99.90;;;;;;5091078;28;20013;-60
2021/12/18 09:11:05;;;;;;;31.52;16.30;;;2.30;99.90;;;;;;5089143;28;20020;-60
2021/12/18 09:13:30;;;;;;;30.30;16.00;;;2.40;99.90;;;;;;5089069;28;20050;-60
2021/12/18 09:15:56;;;;;;;26.88;15.77;;;2.40;99.90;;;;;;5079263;28;20032;-60
2021/12/18 09:18:22;;;;;;;26.40;16.38;;;2.50;99.90;;;;;;5090494;28;20028;-60
2021/12/18 09:20:48;;;;;;;28.67;17.58;;;2.50;99.90;;;;;;5090653;28;20027;-59
2021/12/18 09:23:17;;;;;;;33.50;17.77;;;2.50;99.90;;;;;;5056993;28;20404;-60
2021/12/18 09:25:43;;;;;;;29.23;16.45;;;2.60;99.90;;;;;;5070686;28;20029;-60
2021/12/18 09:28:09;;;;;;;33.20;17.58;;;2.70;99.90;;;;;;5070278;28;20016;-60
2021/12/18 09:30:35;;;;;;;34.47;17.80;;;2.70;99.90;;;;;;5086716;28;20042;-60
2021/12/18 09:33:01;;;;;;;34.65;19.98;;;2.50;99.90;;;;;;5090139;28;20020;-60
2021/12/18 09:35:27;;;;;;;29.83;17.42;;;2.50;99.90;;;;;;5090088;28;20024;-60
2021/12/18 09:37:53;;;;;;;31.25;16.55;;;2.50;99.90;;;;;;5090686;28;20096;-60
2021/12/18 09:40:19;;;;;;;30.00;16.23;;;2.40;99.90;;;;;;5090013;28;20039;-60
2021/12/18 09:42:46;;;;;;;24.73;16.00;;;2.40;99.90;;;;;;5075895;28;20028;-60
2021/12/18 09:45:14;;;;;;;28.67;15.35;;;2.50;99.90;;;;;;5090165;28;20024;-60
2021/12/18 09:47:40;;;;;;;27.50;15.27;;;2.40;99.90;;;;;;5090324;28;20087;-60
2021/12/18 09:50:07;;;;;;;30.42;15.48;;;2.40;99.90;;;;;;5089980;28;20024;-60
2021/12/18 09:52:35;;;;;;;28.75;17.25;;;2.30;99.90;;;;;;5089934;28;20385;-60
2021/12/18 09:55:02;;;;;;;30.27;16.67;;;2.30;99.90;;;;;;5090498;28;20074;-60
2021/12/18 09:57:28;;;;;;;26.92;16.25;;;2.30;99.90;;;;;;5090232;28;20467;-60
2021/12/18 09:59:53;;;;;;;24.60;14.63;;;2.40;99.90;;;;;;5089691;28;20059;-60
2021/12/18 10:02:19;;;;;;;25.35;14.65;;;2.40;99.90;;;;;;5093454;28;20528;-60
2021/12/18 10:04:45;;;;;;;25.48;15.70;;;2.40;99.90;;;;;;5093891;28;20023;-60
2021/12/18 10:07:17;;;;;;;30.88;18.10;;;2.50;99.90;;;;;;5093757;28;20034;-60
2021/12/18 10:09:43;;;;;;;29.50;15.27;;;2.50;99.90;;;;;;5093865;28;20020;-60
2021/12/18 10:12:28;;;;;;;34.30;19.73;;;2.70;99.90;;;;;;5093468;28;20024;-60
2021/12/18 10:15:00;;;;;;;22.27;14.38;;;2.80;99.90;;;;;;5093647;28;20046;-60
2021/12/18 10:17:36;;;;;;;27.48;13.52;;;2.70;99.90;;;;;;5093304;28;20433;-60
2021/12/18 10:20:11;;;;;;;23.73;13.18;;;2.70;99.90;;;;;;5094031;28;20449;-60
2021/12/18 10:22:44;;;;;;;26.15;14.43;;;2.70;99.90;;;;;;5093080;28;20109;-60
2021/12/18 10:25:10;;;;;;;30.35;16.83;;;2.90;99.90;;;;;;5092353;28;20032;-60
2021/12/18 10:27:38;;;;;;;32.25;19.15;;;2.90;99.90;;;;;;5092720;28;20111;-60
2021/12/18 10:30:20;;;;;;;28.77;16.48;;;2.70;99.90;;;;;;5074038;28;20573;-60
2021/12/18 10:33:08;;;;;;;22.98;14.50;;;2.90;99.90;;;;;;5092132;28;20050;-60
2021/12/18 10:35:47;;;;;;;29.60;13.95;;;2.90;99.90;;;;;;5092554;28;20112;-60
2021/12/18 10:38:47;;;;;;;27.48;14.57;;;2.70;99.90;;;;;;5073923;28;20028;-60
2021/12/18 10:41:25;;;;;;;28.45;14.60;;;2.70;99.90;;;;;;5091833;28;20106;-59
2021/12/18 10:44:06;;;;;;;22.35;13.80;;;2.90;99.90;;;;;;5091733;28;20046;-60
2021/12/18 10:46:34;;;;;;;25.98;13.63;;;2.90;99.90;;;;;;5092353;28;20024;-60
2021/12/18 10:49:06;;;;;;;22.38;14.43;;;2.90;99.90;;;;;;5092329;28;20021;-60
2021/12/18 10:51:33;;;;;;;25.35;15.68;;;2.80;99.90;;;;;;5091726;28;20032;-60
2021/12/18 10:54:13;;;;;;;23.88;14.95;;;2.80;99.90;;;;;;5092265;28;20028;-60
2021/12/18 10:56:42;;;;;;;24.35;14.88;;;2.70;99.90;;;;;;5092181;28;20475;-60
2021/12/18 10:59:34;;;;;;;31.80;17.88;;;2.70;99.90;;;;;;5073379;28;20044;-60
2021/12/18 11:02:06;;;;;;;59.28;26.77;;;2.70;99.90;;;;;;5091927;28;20024;-60
2021/12/18 11:04:34;;;;;;;24.80;14.57;;;2.70;99.90;;;;;;5091724;28;20028;-60
2021/12/18 11:07:18;;;;;;;22.08;13.30;;;2.90;99.90;;;;;;5092766;28;20030;-59
2021/12/18 11:09:59;;;;;;;20.63;12.20;;;3.10;99.90;;;;;;5092646;28;20031;-60
2021/12/18 11:15:09;;;;;;;45.20;21.10;;;3.20;99.90;;;;;;5093620;28;20550;-60
2021/12/18 11:17:36;;;;;;;22.92;14.65;;;3.20;99.90;;;;;;5092748;28;20048;-61
2021/12/18 11:20:03;;;;;;;20.67;13.85;;;3.10;99.90;;;;;;5092901;28;20024;-61
2021/12/18 11:22:30;;;;;;;25.25;14.35;;;3.00;99.90;;;;;;5092839;28;20016;-61
2021/12/18 11:25:03;;;;;;;23.02;13.80;;;3.00;99.90;;;;;;5092875;28;20052;-60
2021/12/18 11:27:32;;;;;;;25.30;14.55;;;3.00;99.90;;;;;;5093013;28;20020;-60
2021/12/18 11:30:06;;;;;;;23.10;14.70;;;2.90;99.90;;;;;;5092326;28;20020;-60
2021/12/18 11:32:35;;;;;;;23.38;14.35;;;3.00;99.90;;;;;;5076936;28;20443;-60
2021/12/18 11:35:07;;;;;;;25.42;14.50;;;2.90;99.90;;;;;;5092070;28;20077;-60
2021/12/18 11:37:43;;;;;;;34.47;15.43;;;3.00;99.90;;;;;;5092442;28;20479;-60
2021/12/18 11:40:12;;;;;;;41.75;21.45;;;3.00;99.90;;;;;;5092360;28;20028;-59
2021/12/18 11:42:38;;;;;;;35.08;20.35;;;2.90;99.90;;;;;;5092996;28;20024;-59
2021/12/18 11:45:06;;;;;;;25.38;15.02;;;2.80;99.90;;;;;;5092143;28;20103;-57
2021/12/18 11:47:37;;;;;;;22.27;13.80;;;2.80;99.90;;;;;;5092900;28;20035;-59
2021/12/18 11:50:34;;;;;;;22.17;13.90;;;3.00;99.90;;;;;;5092570;28;20502;-60
2021/12/18 11:52:59;;;;;;;21.27;12.23;;;3.00;99.90;;;;;;5074624;28;20493;-60
2021/12/18 11:55:49;;;;;;;23.30;14.02;;;3.10;99.90;;;;;;5091270;28;20032;-60
2021/12/18 11:58:16;;;;;;;22.48;13.48;;;3.10;99.90;;;;;;5075650;28;20122;-60
2021/12/18 12:01:25;;;;;;;21.48;12.88;;;2.90;99.90;;;;;;5081935;28;20558;-60
2021/12/18 12:03:50;;;;;;;45.30;23.90;;;3.00;99.90;;;;;;5038685;28;20060;-60
2021/12/18 12:06:19;;;;;;;26.38;14.38;;;2.90;99.90;;;;;;5072814;28;20508;-60
2021/12/18 12:08:45;;;;;;;25.13;15.30;;;2.90;99.90;;;;;;5099094;28;20019;-60
2021/12/18 12:11:25;;;;;;;26.83;13.40;;;2.60;99.90;;;;;;5101930;28;20046;-60
2021/12/18 12:14:11;;;;;;;24.40;13.30;;;2.60;99.90;;;;;;5100872;28;20111;-60
2021/12/18 12:16:43;;;;;;;24.13;14.10;;;2.60;99.90;;;;;;5080718;28;20051;-60
2021/12/18 12:19:09;;;;;;;26.38;17.35;;;2.60;99.90;;;;;;5081539;28;20406;-60
2021/12/18 12:21:40;;;;;;;23.63;14.65;;;2.60;99.90;;;;;;5081009;28;20040;-60
2021/12/18 12:24:07;;;;;;;21.30;12.55;;;2.60;99.90;;;;;;5080116;28;20024;-60
2021/12/18 12:26:33;;;;;;;22.92;13.18;;;2.60;99.90;;;;;;5080856;28;20410;-60
2021/12/18 12:28:59;;;;;;;47.85;23.20;;;2.70;99.90;;;;;;5079595;28;20028;-60
2021/12/18 12:31:25;;;;;;;18.92;13.23;;;2.80;99.90;;;;;;5080266;28;20475;-60
2021/12/18 12:33:50;;;;;;;27.98;15.48;;;3.00;99.90;;;;;;5080962;28;20012;-60
2021/12/18 12:36:26;;;;;;;20.92;12.35;;;2.90;99.90;;;;;;5081690;28;20057;-60
2021/12/18 12:38:59;;;;;;;25.77;14.40;;;3.10;99.90;;;;;;5080329;28;20031;-60
2021/12/18 12:41:28;;;;;;;17.33;10.75;;;3.10;99.90;;;;;;5081052;28;20122;-60
2021/12/18 12:43:58;;;;;;;20.02;11.98;;;3.10;99.90;;;;;;5080871;28;20418;-60
2021/12/18 12:46:25;;;;;;;20.25;12.10;;;3.20;99.90;;;;;;5081004;28;20084;-60
2021/12/18 12:49:08;;;;;;;18.35;10.95;;;3.10;99.90;;;;;;5079859;28;20146;-60
2021/12/18 12:52:08;;;;;;;21.48;12.40;;;3.10;99.90;;;;;;5080386;28;20059;-60
2021/12/18 12:54:50;;;;;;;19.42;12.52;;;3.00;99.90;;;;;;5072456;28;20119;-60
2021/12/18 12:57:26;;;;;;;20.08;11.80;;;3.10;99.90;;;;;;5061326;28;20494;-60
2021/12/18 13:00:15;;;;;;;19.08;11.35;;;3.10;99.90;;;;;;5079134;28;20075;-60
2021/12/18 13:03:07;;;;;;;19.08;12.05;;;3.10;99.90;;;;;;5079684;28;20028;-59
2021/12/18 13:06:03;;;;;;;23.10;12.77;;;3.00;99.90;;;;;;5086734;28;20063;-60
2021/12/18 13:08:32;;;;;;;18.40;11.85;;;2.90;99.90;;;;;;5077894;28;20043;-60
2021/12/18 13:10:59;;;;;;;24.63;13.80;;;2.90;99.90;;;;;;5079141;28;20032;-60
2021/12/18 13:13:29;;;;;;;19.38;13.70;;;2.80;99.90;;;;;;5080113;28;20032;-60
2021/12/18 13:16:10;;;;;;;23.10;11.70;;;2.80;99.90;;;;;;5098826;28;20071;-60
2021/12/18 13:18:53;;;;;;;24.50;13.88;;;2.90;99.90;;;;;;5100545;28;20749;-60
2021/12/18 13:21:28;;;;;;;20.10;12.57;;;2.70;99.90;;;;;;5081585;28;20028;-60
2021/12/18 13:24:01;;;;;;;20.27;12.80;;;2.70;99.90;;;;;;5083156;28;20024;-60
2021/12/18 13:26:35;;;;;;;25.00;13.75;;;2.60;99.90;;;;;;5099544;28;20027;-60
2021/12/18 13:29:03;;;;;;;20.85;11.73;;;2.60;99.90;;;;;;5079617;28;20129;-60
2021/12/18 13:31:33;;;;;;;23.88;14.50;;;2.70;99.90;;;;;;5079714;28;20085;-60
2021/12/18 13:34:06;;;;;;;22.92;13.70;;;2.60;99.90;;;;;;5079097;28;20506;-60
2021/12/18 13:36:40;;;;;;;23.92;13.80;;;2.40;99.90;;;;;;5082720;28;20031;-60
2021/12/18 13:39:21;;;;;;;28.85;14.18;;;2.30;99.90;;;;;;5084194;28;20038;-59
2021/12/18 13:41:56;;;;;;;23.42;13.70;;;2.40;99.90;;;;;;5081805;28;20374;-60
2021/12/18 13:44:22;;;;;;;26.02;13.65;;;2.50;99.90;;;;;;5065328;28;20065;-60
2021/12/18 13:46:48;;;;;;;22.40;13.77;;;2.50;99.90;;;;;;5065658;28;20036;-60